Time;durP1;ratioP1;P1;durP2;ratioP2;P2;SDS_P1;SDS_P2;PMS_P1;PMS_P2;Temp;Humidity;BMP_temperature;BMP_pressure;BME280_temperature;BME280_humidity;BME280_pressure;Samples;Min_cycle;Max_cycle;Signal;HPM_P1;HPM_P2
2022/08/13 00:01:39;;;;;;;3.40;2.00;;;14.10;99.90;;;;;;5087038;28;20028;-92
2022/08/13 00:04:06;;;;;;;5.97;2.00;;;14.00;99.90;;;;;;5088055;28;20036;-92
2022/08/13 00:09:08;;;;;;;2.05;1.85;;;13.90;99.90;;;;;;5086136;28;20051;-92
2022/08/13 00:14:23;;;;;;;2.67;2.47;;;13.80;99.90;;;;;;5078458;28;20047;-93
2022/08/13 00:16:50;;;;;;;2.92;2.42;;;13.70;99.90;;;;;;5085992;28;20056;-92
2022/08/13 00:19:19;;;;;;;2.83;2.25;;;13.70;99.90;;;;;;5076176;28;20039;-93
2022/08/13 00:21:47;;;;;;;5.55;2.10;;;13.60;99.90;;;;;;5076533;28;20027;-92
2022/08/13 00:24:14;;;;;;;3.08;1.90;;;13.60;99.90;;;;;;5091409;28;20479;-92
2022/08/13 00:26:40;;;;;;;2.17;1.98;;;13.50;99.90;;;;;;5090017;28;20028;-93
2022/08/13 00:29:06;;;;;;;3.50;2.30;;;13.50;99.90;;;;;;5090848;28;20116;-92
2022/08/13 00:31:32;;;;;;;2.42;2.00;;;13.40;99.90;;;;;;5084759;28;20100;-91
2022/08/13 00:34:00;;;;;;;5.43;2.20;;;13.40;99.90;;;;;;5071591;28;20380;-92
2022/08/13 00:36:31;;;;;;;2.42;2.22;;;13.30;99.90;;;;;;5074985;28;20024;-93
2022/08/13 00:38:57;;;;;;;;;;;13.30;99.90;;;;;;5085339;28;20020;-92
2022/08/13 00:41:38;;;;;;;2.58;2.38;;;13.20;99.90;;;;;;5088478;28;19978;-93
2022/08/13 00:44:13;;;;;;;3.15;2.72;;;13.20;99.90;;;;;;5082314;28;20028;-93
2022/08/13 00:46:40;;;;;;;4.50;3.58;;;13.10;99.90;;;;;;5075696;28;20055;-92
2022/08/13 00:49:08;;;;;;;3.03;2.78;;;13.10;99.90;;;;;;5091866;28;20082;-93
2022/08/13 00:51:35;;;;;;;2.08;1.98;;;13.00;99.90;;;;;;5085429;28;20012;-93
2022/08/13 00:54:03;;;;;;;4.75;2.20;;;13.00;99.90;;;;;;5065467;28;20111;-92
2022/08/13 00:56:34;;;;;;;2.53;2.33;;;13.00;99.90;;;;;;5087108;28;20100;-92
2022/08/13 00:59:07;;;;;;;;;;;12.90;99.90;;;;;;5075648;28;20025;-93
2022/08/13 01:01:36;;;;;;;2.97;2.30;;;12.80;99.90;;;;;;5078620;28;19908;-93
2022/08/13 01:04:07;;;;;;;2.67;2.30;;;12.80;99.90;;;;;;5090952;28;20090;-92
2022/08/13 01:06:35;;;;;;;2.70;2.33;;;12.80;99.90;;;;;;5083853;28;20025;-92
2022/08/13 01:09:02;;;;;;;2.90;2.70;;;12.70;99.90;;;;;;5087900;28;20107;-93
2022/08/13 01:11:32;;;;;;;3.22;2.80;;;12.70;99.90;;;;;;5088878;28;20020;-92
2022/08/13 01:14:00;;;;;;;2.72;2.53;;;12.70;99.90;;;;;;5075137;28;20040;-92
2022/08/13 01:16:28;;;;;;;3.78;2.45;;;12.70;99.90;;;;;;5082927;28;20587;-92
2022/08/13 01:18:54;;;;;;;3.47;2.72;;;12.60;99.90;;;;;;5074228;28;20013;-92
2022/08/13 01:21:23;;;;;;;4.60;2.58;;;12.60;99.90;;;;;;5084188;28;20032;-92
2022/08/13 01:23:52;;;;;;;3.03;2.50;;;12.60;99.90;;;;;;5085898;28;20024;-92
2022/08/13 01:26:20;;;;;;;2.92;2.72;;;12.60;99.90;;;;;;5072649;28;20548;-91
2022/08/13 01:28:48;;;;;;;3.05;2.85;;;12.60;99.90;;;;;;5092770;28;20111;-92
2022/08/13 01:31:15;;;;;;;2.70;2.50;;;12.50;99.90;;;;;;5089516;28;20024;-92
2022/08/13 01:33:43;;;;;;;3.65;3.00;;;12.50;99.90;;;;;;5078750;28;20024;-92
2022/08/13 01:36:10;;;;;;;4.28;3.50;;;12.40;99.90;;;;;;5063870;28;20504;-92
2022/08/13 01:38:37;;;;;;;3.30;3.10;;;12.40;99.90;;;;;;5087304;28;20262;-91
2022/08/13 01:41:08;;;;;;;5.30;3.65;;;12.40;99.90;;;;;;5084733;28;20028;-92
2022/08/13 01:43:37;;;;;;;3.25;3.00;;;12.40;99.90;;;;;;5084634;28;20034;-91
2022/08/13 01:46:06;;;;;;;3.13;2.92;;;12.40;99.90;;;;;;5070237;28;20024;-91
2022/08/13 01:51:22;;;;;;;3.40;3.08;;;12.30;99.90;;;;;;5092826;28;20085;-91
2022/08/13 01:53:55;;;;;;;3.13;2.92;;;12.30;99.90;;;;;;5089133;28;20052;-91
2022/08/13 01:56:22;;;;;;;4.03;2.92;;;12.30;99.90;;;;;;5079731;28;20029;-91
2022/08/13 01:58:53;;;;;;;3.40;3.10;;;12.30;99.90;;;;;;5089074;28;20055;-92
2022/08/13 02:01:25;;;;;;;;;;;12.30;99.90;;;;;;5106247;28;20027;-92
2022/08/13 02:03:51;;;;;;;5.63;3.20;;;12.20;99.90;;;;;;5113414;28;19910;-91
2022/08/13 02:06:26;;;;;;;3.80;3.50;;;12.20;99.90;;;;;;5078022;28;20032;-91
2022/08/13 02:08:57;;;;;;;4.35;3.95;;;12.20;99.90;;;;;;5070911;28;20396;-91
2022/08/13 02:11:24;;;;;;;3.25;3.05;;;12.10;99.90;;;;;;5069525;28;20399;-91
2022/08/13 02:13:54;;;;;;;3.28;3.00;;;12.10;99.90;;;;;;5073869;28;20396;-91
2022/08/13 02:16:20;;;;;;;3.10;2.90;;;12.10;99.90;;;;;;5080150;28;20404;-91
2022/08/13 02:18:45;;;;;;;5.38;3.83;;;12.00;99.90;;;;;;5084451;28;20027;-92
2022/08/13 02:21:11;;;;;;;5.90;3.65;;;12.00;99.90;;;;;;5080409;28;20093;-90
2022/08/13 02:23:38;;;;;;;4.88;2.85;;;11.90;99.90;;;;;;5074140;28;20028;-91
2022/08/13 02:26:08;;;;;;;3.10;2.90;;;11.90;99.90;;;;;;5080508;28;20485;-91
2022/08/13 02:28:37;;;;;;;3.05;2.85;;;11.90;99.90;;;;;;5079362;28;20028;-90
2022/08/13 02:31:03;;;;;;;3.67;3.00;;;11.90;99.90;;;;;;5091149;28;20028;-90
2022/08/13 02:33:29;;;;;;;5.80;4.03;;;11.90;99.90;;;;;;5074075;28;20116;-90
2022/08/13 02:35:55;;;;;;;3.92;3.58;;;11.80;99.90;;;;;;5073992;28;20531;-89
2022/08/13 02:38:20;;;;;;;4.68;3.53;;;11.70;99.90;;;;;;5073846;28;20032;-91
2022/08/13 02:43:32;;;;;;;4.32;3.95;;;11.60;99.90;;;;;;5085763;28;20081;-92
2022/08/13 02:46:00;;;;;;;4.25;3.67;;;11.60;99.90;;;;;;5077404;28;20059;-91
2022/08/13 02:48:26;;;;;;;6.78;3.20;;;11.50;99.90;;;;;;5088215;28;20040;-91
2022/08/13 02:50:55;;;;;;;3.20;2.90;;;11.50;99.90;;;;;;5084401;28;20028;-91
2022/08/13 02:53:21;;;;;;;6.60;3.70;;;11.50;99.90;;;;;;5082792;28;20047;-90
2022/08/13 02:55:47;;;;;;;6.22;3.55;;;11.50;99.90;;;;;;5090639;28;20036;-91
2022/08/13 02:58:14;;;;;;;5.28;3.88;;;11.50;99.90;;;;;;5090200;28;20017;-91
2022/08/13 03:00:41;;;;;;;6.35;4.18;;;11.40;99.90;;;;;;5082514;28;20060;-92
2022/08/13 03:03:08;;;;;;;4.60;4.05;;;11.40;99.90;;;;;;5092250;28;20028;-90
2022/08/13 03:05:34;;;;;;;5.45;4.15;;;11.40;99.90;;;;;;5095545;28;20032;-91
2022/08/13 03:08:01;;;;;;;11.00;4.22;;;11.40;99.90;;;;;;5095449;28;20040;-92
2022/08/13 03:10:27;;;;;;;3.95;3.58;;;11.30;99.90;;;;;;5085995;28;20021;-90
2022/08/13 03:13:07;;;;;;;3.92;3.42;;;11.30;99.90;;;;;;5087544;28;20020;-91
2022/08/13 03:15:34;;;;;;;3.83;3.53;;;11.30;99.90;;;;;;5097151;28;20029;-90
2022/08/13 03:18:00;;;;;;;8.52;4.13;;;11.30;99.90;;;;;;5085139;28;20059;-91
2022/08/13 03:20:27;;;;;;;4.00;3.38;;;11.30;99.90;;;;;;5094138;28;20531;-91
2022/08/13 03:23:00;;;;;;;5.53;3.92;;;11.20;99.90;;;;;;5095368;28;20051;-91
2022/08/13 03:25:29;;;;;;;5.22;4.70;;;11.20;99.90;;;;;;5092675;28;20376;-92
2022/08/13 03:27:58;;;;;;;4.75;4.35;;;11.20;99.90;;;;;;5076403;28;20050;-92
2022/08/13 03:30:24;;;;;;;4.95;4.07;;;11.10;99.90;;;;;;5104303;28;20058;-90
2022/08/13 03:32:51;;;;;;;4.72;4.35;;;11.10;99.90;;;;;;5083980;28;20039;-91
2022/08/13 03:35:20;;;;;;;6.57;4.70;;;11.10;99.90;;;;;;5084786;28;20123;-92
2022/08/13 03:37:48;;;;;;;10.38;4.15;;;11.00;99.90;;;;;;5093372;28;20040;-91
2022/08/13 03:40:15;;;;;;;6.32;3.90;;;11.10;99.90;;;;;;5094059;28;20111;-92
2022/08/13 03:42:42;;;;;;;3.75;3.45;;;11.00;99.90;;;;;;5093053;28;20047;-91
2022/08/13 03:45:10;;;;;;;4.85;3.83;;;11.00;99.90;;;;;;5094844;28;20032;-91
2022/08/13 03:47:38;;;;;;;4.35;4.03;;;11.00;99.90;;;;;;5093855;28;20407;-91
2022/08/13 03:50:07;;;;;;;4.40;3.95;;;11.10;99.90;;;;;;5094709;28;20063;-91
2022/08/13 03:52:34;;;;;;;6.97;4.53;;;11.00;99.90;;;;;;5094367;28;20080;-91
2022/08/13 03:55:01;;;;;;;4.93;4.18;;;11.10;99.90;;;;;;5089967;28;20020;-91
2022/08/13 03:57:26;;;;;;;4.47;4.18;;;11.10;99.90;;;;;;5075893;28;20035;-90
2022/08/13 03:59:52;;;;;;;4.30;3.90;;;11.10;99.90;;;;;;5092054;28;20029;-91
2022/08/13 04:02:18;;;;;;;4.50;4.20;;;11.10;99.90;;;;;;5082438;28;20024;-91
2022/08/13 04:04:47;;;;;;;5.40;3.88;;;11.10;99.90;;;;;;5091255;28;20066;-91
2022/08/13 04:07:18;;;;;;;4.03;3.65;;;11.10;99.90;;;;;;5060792;28;20024;-91
2022/08/13 04:09:45;;;;;;;4.30;3.93;;;11.10;99.90;;;;;;5090340;28;20027;-90
2022/08/13 04:12:12;;;;;;;6.05;4.60;;;11.00;99.90;;;;;;5088556;28;20051;-91
2022/08/13 04:14:39;;;;;;;4.15;3.85;;;11.00;99.90;;;;;;5088841;28;20031;-92
2022/08/13 04:17:10;;;;;;;4.93;4.53;;;10.90;99.90;;;;;;5069321;28;20024;-90
2022/08/13 04:19:40;;;;;;;5.05;4.57;;;10.90;99.90;;;;;;5092146;28;20073;-92
2022/08/13 04:22:07;;;;;;;4.18;3.78;;;10.90;99.90;;;;;;5099037;28;20032;-91
2022/08/13 04:24:33;;;;;;;4.43;4.03;;;10.90;99.90;;;;;;5071664;28;20066;-90
2022/08/13 04:27:00;;;;;;;5.78;4.10;;;10.90;99.90;;;;;;5086519;28;20032;-91
2022/08/13 04:29:26;;;;;;;4.53;4.13;;;10.90;99.90;;;;;;5085090;28;20115;-91
2022/08/13 04:31:52;;;;;;;5.18;4.03;;;11.00;99.90;;;;;;5094033;28;20115;-91
2022/08/13 04:34:20;;;;;;;6.95;4.13;;;11.00;99.90;;;;;;5083523;28;20028;-92
2022/08/13 04:36:46;;;;;;;4.45;4.05;;;11.10;99.90;;;;;;5091509;28;20016;-91
2022/08/13 04:39:12;;;;;;;6.00;4.70;;;11.10;99.90;;;;;;5083788;28;20071;-90
2022/08/13 04:41:37;;;;;;;4.45;4.05;;;11.20;99.90;;;;;;5089785;28;20040;-91
2022/08/13 04:44:03;;;;;;;7.35;4.22;;;11.30;99.90;;;;;;5075445;28;20032;-91
2022/08/13 04:46:29;;;;;;;5.00;4.18;;;11.40;99.90;;;;;;5094060;28;20491;-91
2022/08/13 04:48:55;;;;;;;4.63;4.28;;;11.50;99.90;;;;;;5094221;28;20030;-91
2022/08/13 04:51:23;;;;;;;5.70;5.20;;;11.60;99.90;;;;;;5090507;28;20031;-91
2022/08/13 04:53:48;;;;;;;5.72;4.38;;;11.60;99.90;;;;;;5091703;28;20111;-92
2022/08/13 04:56:14;;;;;;;5.45;4.38;;;11.70;99.90;;;;;;5085574;28;20119;-91
2022/08/13 04:58:40;;;;;;;4.40;3.88;;;11.80;99.90;;;;;;5078644;28;20112;-90
2022/08/13 05:01:09;;;;;;;5.47;4.90;;;11.90;99.90;;;;;;5062873;28;20465;-91
2022/08/13 05:03:38;;;;;;;5.05;4.55;;;12.00;99.90;;;;;;5082919;28;20040;-91
2022/08/13 05:06:06;;;;;;;5.10;4.50;;;12.10;99.90;;;;;;5075167;28;20032;-92
2022/08/13 05:08:33;;;;;;;4.40;3.67;;;12.30;99.90;;;;;;5084150;28;20032;-92
2022/08/13 05:11:01;;;;;;;3.80;3.60;;;12.70;99.90;;;;;;5076043;28;20055;-93
2022/08/13 05:13:35;;;;;;;7.15;3.40;;;13.50;99.90;;;;;;5073925;28;20037;-91
2022/08/13 05:16:03;;;;;;;3.97;3.10;;;14.50;99.90;;;;;;5065242;28;20067;-92
2022/08/13 05:18:32;;;;;;;3.13;2.83;;;15.70;99.90;;;;;;5080744;28;20027;-93
2022/08/13 05:21:03;;;;;;;4.45;3.10;;;17.00;99.90;;;;;;5074855;28;20047;-92
2022/08/13 05:23:30;;;;;;;4.25;2.60;;;18.30;99.50;;;;;;5090948;28;20025;-93
2022/08/13 05:25:59;;;;;;;3.53;2.47;;;19.40;93.60;;;;;;5075235;28;20032;-92
2022/08/13 05:28:25;;;;;;;3.70;2.30;;;20.20;89.60;;;;;;5092631;28;20035;-92
2022/08/13 05:30:51;;;;;;;3.58;2.45;;;21.00;82.40;;;;;;5075790;28;20028;-92
2022/08/13 05:33:23;;;;;;;2.92;2.05;;;21.40;79.40;;;;;;5092878;28;20165;-93
2022/08/13 05:35:51;;;;;;;2.33;2.20;;;22.10;74.20;;;;;;5088380;28;20039;-93
2022/08/13 05:38:22;;;;;;;2.55;2.25;;;22.70;71.20;;;;;;5072699;28;20101;-92
2022/08/13 05:40:59;;;;;;;3.20;2.50;;;23.00;68.10;;;;;;5081944;28;20028;-92
2022/08/13 05:43:27;;;;;;;2.10;1.95;;;23.30;65.40;;;;;;5073105;28;20048;-93
2022/08/13 05:46:05;;;;;;;3.22;2.13;;;23.40;66.00;;;;;;5074392;28;20044;-92
2022/08/13 05:48:34;;;;;;;2.55;2.35;;;23.60;65.80;;;;;;5075497;28;20091;-92
2022/08/13 05:51:03;;;;;;;2.28;2.17;;;23.70;64.20;;;;;;5066821;28;20020;-93
2022/08/13 05:53:32;;;;;;;3.00;2.38;;;24.30;64.40;;;;;;5099328;28;20008;-92
2022/08/13 05:55:58;;;;;;;4.25;2.08;;;24.70;61.40;;;;;;5084693;28;20568;-91
2022/08/13 05:58:24;;;;;;;2.25;2.08;;;25.20;61.00;;;;;;5093312;28;20435;-93
2022/08/13 06:03:36;;;;;;;2.72;2.53;;;26.80;56.80;;;;;;5093246;28;20066;-93
2022/08/13 06:06:05;;;;;;;2.58;1.92;;;28.00;53.90;;;;;;5074422;28;20044;-93
2022/08/13 06:08:36;;;;;;;1.70;1.60;;;28.50;52.80;;;;;;5092481;28;20039;-93
2022/08/13 06:11:08;;;;;;;3.35;1.85;;;29.10;50.70;;;;;;5092814;28;20017;-93
2022/08/13 06:13:37;;;;;;;2.30;2.10;;;29.40;49.90;;;;;;5092889;28;20056;-93
2022/08/13 06:16:06;;;;;;;4.05;1.88;;;29.20;49.50;;;;;;5076424;28;20103;-95
2022/08/13 06:18:34;;;;;;;2.47;1.98;;;29.10;49.30;;;;;;5092454;28;20035;-93
2022/08/13 06:21:05;;;;;;;2.90;1.83;;;29.00;49.50;;;;;;5092232;28;20058;-92
2022/08/13 06:23:34;;;;;;;4.95;2.10;;;28.60;50.20;;;;;;5092549;28;20020;-93
2022/08/13 06:26:01;;;;;;;2.08;1.98;;;28.70;51.10;;;;;;5056577;28;20032;-93
2022/08/13 06:28:30;;;;;;;2.30;2.20;;;29.40;50.80;;;;;;5088154;28;20032;-93
2022/08/13 06:30:59;;;;;;;2.13;2.03;;;30.10;48.80;;;;;;5092953;28;20024;-93
2022/08/13 06:33:26;;;;;;;2.60;2.40;;;30.70;48.80;;;;;;5091768;28;20515;-93
2022/08/13 06:35:57;;;;;;;1.85;1.75;;;31.10;47.40;;;;;;5087471;28;20028;-91
2022/08/13 06:38:27;;;;;;;1.95;1.85;;;31.20;46.50;;;;;;5084576;28;20039;-93
2022/08/13 06:40:55;;;;;;;4.50;2.10;;;31.20;46.40;;;;;;5073577;28;20036;-93
2022/08/13 06:43:22;;;;;;;4.93;2.00;;;31.40;46.10;;;;;;5085736;28;20103;-93
2022/08/13 06:45:48;;;;;;;3.70;1.73;;;31.40;46.40;;;;;;5077587;28;20025;-93
2022/08/13 06:48:15;;;;;;;1.90;1.70;;;31.50;46.20;;;;;;5078367;28;20035;-94
2022/08/13 06:50:44;;;;;;;2.40;1.70;;;31.70;45.80;;;;;;5073931;28;20027;-91
2022/08/13 06:53:12;;;;;;;2.28;1.95;;;32.20;45.30;;;;;;5076462;28;20027;-94
2022/08/13 06:55:42;;;;;;;2.85;1.92;;;32.40;45.30;;;;;;5085403;28;20052;-94
2022/08/13 06:58:14;;;;;;;2.35;1.70;;;32.50;44.90;;;;;;5074017;28;20110;-94
2022/08/13 07:00:41;;;;;;;1.88;1.65;;;32.50;44.30;;;;;;5075528;28;20032;-93
2022/08/13 07:03:07;;;;;;;1.77;1.55;;;32.90;44.90;;;;;;5083927;28;20032;-94
2022/08/13 07:05:41;;;;;;;1.73;1.42;;;32.90;44.20;;;;;;5064611;28;20025;-96
2022/08/13 07:08:11;;;;;;;3.75;1.67;;;32.80;44.30;;;;;;5072498;28;20024;-95
2022/08/13 07:11:21;;;;;;;5.40;1.52;;;32.20;44.70;;;;;;5077411;28;20040;-96
2022/08/13 07:16:53;;;;;;;2.78;1.80;;;32.30;44.00;;;;;;5060311;28;20048;-96
2022/08/13 07:22:41;;;;;;;2.42;1.63;;;32.10;44.80;;;;;;5089224;28;20128;-95
2022/08/13 07:25:10;;;;;;;2.67;1.83;;;32.20;44.60;;;;;;5089112;28;20024;-94
2022/08/13 07:27:39;;;;;;;1.63;1.52;;;32.50;45.10;;;;;;5096206;28;20093;-95
2022/08/13 07:30:14;;;;;;;2.87;1.40;;;33.00;43.80;;;;;;5095597;28;20031;-96
2022/08/13 07:32:40;;;;;;;2.80;1.55;;;33.00;44.00;;;;;;5085291;28;20024;-94
2022/08/13 07:35:08;;;;;;;3.15;1.58;;;33.30;43.00;;;;;;5093268;28;20028;-95
2022/08/13 07:37:36;;;;;;;1.63;1.25;;;33.10;43.90;;;;;;5098451;28;20103;-95
2022/08/13 07:40:05;;;;;;;2.22;1.23;;;32.80;43.90;;;;;;5099868;28;20020;-95
2022/08/13 07:42:39;;;;;;;1.42;1.33;;;32.60;45.40;;;;;;5097818;28;20080;-94
2022/08/13 07:45:09;;;;;;;3.58;1.55;;;32.60;44.00;;;;;;5102757;28;20035;-95
2022/08/13 07:47:37;;;;;;;2.45;1.30;;;32.60;45.10;;;;;;5113582;28;20033;-96
2022/08/13 07:50:05;;;;;;;2.25;1.50;;;33.20;43.40;;;;;;5096468;28;20030;-95
2022/08/13 07:52:32;;;;;;;2.05;1.50;;;33.10;42.70;;;;;;5099469;28;20037;-96
2022/08/13 07:55:00;;;;;;;3.00;1.50;;;33.80;41.60;;;;;;5112489;28;20040;-95
2022/08/13 07:57:29;;;;;;;2.53;1.35;;;34.40;42.20;;;;;;5109008;28;20040;-96
2022/08/13 07:59:55;;;;;;;2.35;1.40;;;35.00;40.60;;;;;;5110186;28;20015;-96
2022/08/13 08:02:27;;;;;;;2.55;1.30;;;36.30;39.70;;;;;;5100810;28;20096;-96
2022/08/13 08:04:55;;;;;;;3.03;1.25;;;37.20;38.70;;;;;;5095017;28;20020;-95
2022/08/13 08:07:22;;;;;;;2.88;1.30;;;38.10;36.80;;;;;;5090020;28;20107;-95
2022/08/13 08:09:50;;;;;;;2.03;1.40;;;38.20;35.90;;;;;;5098958;28;20035;-95
2022/08/13 08:15:21;;;;;;;1.95;1.30;;;39.10;35.10;;;;;;5067465;28;20033;-96
2022/08/13 08:17:47;;;;;;;2.75;1.30;;;39.40;35.70;;;;;;5092952;28;20037;-96
2022/08/13 08:20:21;;;;;;;1.15;1.08;;;40.00;34.30;;;;;;5089442;28;20019;-94
2022/08/13 08:22:50;;;;;;;4.97;1.35;;;40.30;34.30;;;;;;5108775;28;20101;-96
2022/08/13 08:25:20;;;;;;;1.23;0.80;;;40.40;32.50;;;;;;5108716;28;20029;-96
2022/08/13 08:27:49;;;;;;;1.40;1.00;;;40.50;32.20;;;;;;5088486;28;20043;-96
2022/08/13 08:30:17;;;;;;;2.80;1.00;;;41.00;31.90;;;;;;5082479;28;20019;-94
2022/08/13 08:32:51;;;;;;;1.20;1.00;;;41.40;31.50;;;;;;5104508;28;20039;-96
2022/08/13 08:35:17;;;;;;;2.80;1.00;;;40.80;31.30;;;;;;5085111;28;20023;-95
2022/08/13 08:43:29;;;;;;;1.95;0.88;;;38.90;31.70;;;;;;5095868;28;20054;-96
2022/08/13 08:45:56;;;;;;;0.60;0.60;;;38.70;33.70;;;;;;5109619;22;20040;-59
2022/08/13 08:48:23;;;;;;;3.25;0.88;;;39.00;32.20;;;;;;5060549;28;20048;-59
2022/08/13 08:50:49;;;;;;;1.75;0.75;;;39.40;32.00;;;;;;5061031;28;20036;-59
2022/08/13 08:53:23;;;;;;;3.50;0.85;;;38.80;31.60;;;;;;5060329;28;20446;-59
2022/08/13 08:55:51;;;;;;;1.65;1.00;;;36.20;31.90;;;;;;5060040;28;20052;-58
2022/08/13 08:58:18;;;;;;;1.92;0.80;;;36.30;34.10;;;;;;5056639;28;20138;-59
2022/08/13 09:00:47;;;;;;;1.90;0.90;;;36.70;33.70;;;;;;5062294;28;20120;-59
2022/08/13 09:03:17;;;;;;;0.95;0.80;;;37.50;32.30;;;;;;5057078;28;20024;-58
2022/08/13 09:05:45;;;;;;;4.05;0.90;;;38.60;31.20;;;;;;5059407;28;20079;-59
2022/08/13 09:08:13;;;;;;;4.70;0.88;;;39.50;31.10;;;;;;5063961;28;20028;-60
2022/08/13 09:10:39;;;;;;;1.23;0.52;;;39.50;29.80;;;;;;5061802;28;20388;-60
2022/08/13 09:13:05;;;;;;;0.77;0.70;;;38.00;27.80;;;;;;5058282;28;20017;-59
2022/08/13 09:15:39;;;;;;;0.77;0.77;;;35.70;30.30;;;;;;5055698;28;20039;-58
2022/08/13 09:18:05;;;;;;;1.63;0.90;;;34.80;30.00;;;;;;5061211;28;20032;-58
2022/08/13 09:20:33;;;;;;;3.88;1.00;;;33.90;32.80;;;;;;5059243;28;20039;-58
2022/08/13 09:23:07;;;;;;;5.25;0.80;;;35.00;34.20;;;;;;5058073;28;20085;-59
2022/08/13 09:25:34;;;;;;;1.30;0.70;;;36.30;34.50;;;;;;5057053;28;20047;-59
2022/08/13 09:28:01;;;;;;;7.95;1.13;;;36.30;30.80;;;;;;5060664;28;20025;-59
2022/08/13 09:30:27;;;;;;;0.95;0.80;;;36.80;31.00;;;;;;5057624;28;20029;-58
2022/08/13 09:32:57;;;;;;;1.90;0.90;;;35.80;30.30;;;;;;5059661;28;20059;-58
2022/08/13 09:35:25;;;;;;;4.22;0.90;;;36.60;32.00;;;;;;5055980;28;20539;-59
2022/08/13 09:37:56;;;;;;;1.35;0.70;;;37.70;31.30;;;;;;5060954;28;20503;-59
2022/08/13 09:40:26;;;;;;;0.77;0.70;;;37.70;29.90;;;;;;5056605;28;20078;-59
2022/08/13 09:43:01;;;;;;;3.42;0.77;;;38.10;30.70;;;;;;5059794;28;20442;-58
2022/08/13 09:45:27;;;;;;;2.80;0.85;;;38.70;30.30;;;;;;5057895;28;20044;-59
2022/08/13 09:47:54;;;;;;;1.13;0.60;;;38.20;28.80;;;;;;5062258;28;20028;-60
2022/08/13 09:50:23;;;;;;;1.23;0.85;;;37.80;29.50;;;;;;5056695;28;20040;-59
2022/08/13 09:52:50;;;;;;;0.70;0.70;;;37.30;29.50;;;;;;5056968;28;20121;-58
2022/08/13 09:55:15;;;;;;;0.82;0.70;;;35.70;29.40;;;;;;5059518;28;20491;-59
2022/08/13 09:57:53;;;;;;;1.35;0.90;;;35.00;31.80;;;;;;5055974;28;20017;-59
2022/08/13 10:00:21;;;;;;;1.40;0.70;;;35.30;32.20;;;;;;5057916;28;20132;-58
2022/08/13 10:02:54;;;;;;;1.85;0.80;;;35.70;31.10;;;;;;5056754;28;20048;-58
2022/08/13 10:05:20;;;;;;;2.03;0.77;;;35.60;30.60;;;;;;5049850;28;20032;-58
2022/08/13 10:07:46;;;;;;;2.42;0.77;;;35.70;32.60;;;;;;5056668;28;20440;-59
2022/08/13 10:10:13;;;;;;;2.28;0.88;;;36.10;31.80;;;;;;5059163;28;20017;-59
2022/08/13 10:12:39;;;;;;;1.65;0.73;;;36.70;29.90;;;;;;5060639;28;20017;-58
2022/08/13 10:15:06;;;;;;;0.85;0.77;;;36.80;30.70;;;;;;5061810;28;20553;-59
2022/08/13 10:17:46;;;;;;;1.30;0.80;;;36.60;30.90;;;;;;5056747;28;20068;-59
2022/08/13 10:20:17;;;;;;;2.65;0.75;;;36.30;30.00;;;;;;5056750;28;20032;-58
2022/08/13 10:22:44;;;;;;;1.38;1.00;;;35.40;30.80;;;;;;5058869;28;20051;-59
2022/08/13 10:25:09;;;;;;;0.80;0.80;;;34.80;31.30;;;;;;5058311;28;20017;-58
2022/08/13 10:27:35;;;;;;;1.58;0.90;;;34.60;31.90;;;;;;5057058;28;20112;-58
2022/08/13 10:30:05;;;;;;;0.80;0.80;;;33.70;32.40;;;;;;5053114;28;20063;-58
2022/08/13 10:32:31;;;;;;;1.83;0.80;;;34.20;32.70;;;;;;5058885;28;20086;-59
2022/08/13 10:35:00;;;;;;;1.77;0.80;;;35.20;32.30;;;;;;5060121;28;20024;-59
2022/08/13 10:37:28;;;;;;;0.98;0.85;;;36.10;31.20;;;;;;5064499;28;20063;-58
2022/08/13 10:39:57;;;;;;;0.88;0.88;;;36.00;30.80;;;;;;5061801;28;20025;-58
2022/08/13 10:42:24;;;;;;;0.90;0.90;;;34.90;31.30;;;;;;5051713;28;20041;-58
2022/08/13 10:44:53;;;;;;;0.82;0.82;;;35.10;31.70;;;;;;5053004;28;20106;-58
2022/08/13 10:47:24;;;;;;;1.83;1.00;;;35.20;31.90;;;;;;5055915;28;20127;-58
2022/08/13 10:49:51;;;;;;;0.93;0.88;;;35.20;32.40;;;;;;5060125;28;20406;-58
2022/08/13 10:52:20;;;;;;;1.85;0.77;;;35.80;32.80;;;;;;5058158;28;20415;-59
2022/08/13 10:54:48;;;;;;;1.00;1.00;;;36.20;31.10;;;;;;5061968;28;20017;-58
2022/08/13 10:57:14;;;;;;;0.98;0.70;;;36.00;32.20;;;;;;5055199;28;21049;-59
2022/08/13 10:59:43;;;;;;;2.33;0.90;;;36.10;32.40;;;;;;5060444;28;20033;-58
2022/08/13 11:02:11;;;;;;;2.17;1.00;;;35.90;31.50;;;;;;5038575;28;20040;-58
2022/08/13 11:04:38;;;;;;;3.50;0.90;;;35.30;32.60;;;;;;5057113;28;20037;-59
2022/08/13 11:07:06;;;;;;;1.85;1.00;;;34.20;32.00;;;;;;5051989;28;20091;-58
2022/08/13 11:09:31;;;;;;;1.45;1.08;;;33.80;33.50;;;;;;5057325;28;20123;-58
2022/08/13 11:11:58;;;;;;;1.58;1.02;;;33.80;34.50;;;;;;5058415;28;20600;-59
2022/08/13 11:14:24;;;;;;;4.25;1.00;;;34.20;34.40;;;;;;5059655;28;20037;-58
2022/08/13 11:16:56;;;;;;;1.00;1.00;;;34.40;34.10;;;;;;5058340;28;20052;-57
2022/08/13 11:19:26;;;;;;;1.38;1.13;;;34.60;34.40;;;;;;5057958;28;20028;-58
2022/08/13 11:21:52;;;;;;;1.90;1.00;;;34.10;35.00;;;;;;5059797;28;20032;-58
2022/08/13 11:24:18;;;;;;;1.13;1.10;;;34.10;35.70;;;;;;5062419;28;20032;-58
2022/08/13 11:26:48;;;;;;;1.90;1.00;;;34.40;34.90;;;;;;5064980;28;20029;-58
2022/08/13 11:29:14;;;;;;;1.53;1.20;;;34.50;34.90;;;;;;5064119;28;20664;-58
2022/08/13 11:31:40;;;;;;;1.60;1.10;;;34.70;34.20;;;;;;5060787;28;20108;-58
2022/08/13 11:34:06;;;;;;;1.42;1.15;;;35.10;35.10;;;;;;5065628;28;20104;-58
2022/08/13 11:36:32;;;;;;;1.60;1.08;;;35.40;35.00;;;;;;5067296;28;20116;-58
2022/08/13 11:38:58;;;;;;;1.52;0.90;;;35.70;35.10;;;;;;5062528;28;20140;-59
2022/08/13 11:41:27;;;;;;;2.13;1.17;;;35.80;34.80;;;;;;5050563;28;20419;-58
2022/08/13 11:43:53;;;;;;;1.65;1.02;;;35.50;34.80;;;;;;5060472;28;20056;-58
2022/08/13 11:46:24;;;;;;;2.35;1.08;;;35.00;35.50;;;;;;5046219;28;20071;-58
2022/08/13 11:48:50;;;;;;;2.50;1.20;;;34.80;36.50;;;;;;5062628;28;20049;-58
2022/08/13 11:51:16;;;;;;;4.00;1.30;;;35.00;36.40;;;;;;5060725;28;20067;-58
2022/08/13 11:53:42;;;;;;;1.55;1.30;;;34.70;34.90;;;;;;5064431;28;20781;-58
2022/08/13 11:56:07;;;;;;;3.03;1.30;;;35.10;35.90;;;;;;5062425;28;20075;-58
2022/08/13 11:58:34;;;;;;;2.55;1.23;;;35.60;36.00;;;;;;5057269;28;20029;-58
2022/08/13 12:00:59;;;;;;;2.13;1.13;;;35.90;33.80;;;;;;5065389;28;20024;-59
2022/08/13 12:03:25;;;;;;;4.57;1.10;;;35.30;34.80;;;;;;5062146;28;20031;-58
2022/08/13 12:05:51;;;;;;;2.90;1.25;;;35.40;35.90;;;;;;5062678;28;20029;-59
2022/08/13 12:08:19;;;;;;;1.27;1.17;;;34.90;35.70;;;;;;5043502;28;20029;-60
2022/08/13 12:10:46;;;;;;;1.30;1.20;;;34.50;36.80;;;;;;5054080;28;20029;-59
2022/08/13 12:13:12;;;;;;;6.45;1.30;;;33.60;38.10;;;;;;5061162;28;20031;-60
2022/08/13 12:15:38;;;;;;;1.80;1.35;;;33.50;37.70;;;;;;5060719;28;20050;-58
2022/08/13 12:18:04;;;;;;;2.00;1.23;;;33.70;36.90;;;;;;5062574;28;20021;-59
2022/08/13 12:20:29;;;;;;;4.45;1.35;;;33.80;38.00;;;;;;5062681;28;20044;-58
2022/08/13 12:22:58;;;;;;;1.90;1.25;;;34.10;38.30;;;;;;5058410;28;20021;-58
2022/08/13 12:25:26;;;;;;;1.30;1.20;;;34.00;37.30;;;;;;5060514;28;20040;-58
2022/08/13 12:28:11;;;;;;;1.30;1.20;;;33.80;37.70;;;;;;5046985;28;20029;-58
2022/08/13 12:30:37;;;;;;;2.20;1.40;;;33.50;37.50;;;;;;5062506;28;20041;-58
2022/08/13 12:33:04;;;;;;;1.38;1.27;;;33.20;39.00;;;;;;5065596;28;20056;-58
2022/08/13 12:35:29;;;;;;;1.88;1.38;;;33.30;39.20;;;;;;5057375;28;20033;-58
2022/08/13 12:37:55;;;;;;;1.40;1.30;;;33.30;39.00;;;;;;5060672;28;20499;-58
2022/08/13 12:40:21;;;;;;;4.13;1.25;;;33.20;39.20;;;;;;5060947;28;20214;-58
2022/08/13 12:42:46;;;;;;;1.30;1.20;;;33.20;39.70;;;;;;5065377;28;20021;-58
2022/08/13 12:45:13;;;;;;;1.67;1.45;;;33.00;39.30;;;;;;5061690;28;20035;-58
2022/08/13 12:47:40;;;;;;;2.80;1.40;;;32.80;40.30;;;;;;5060200;28;20041;-58
2022/08/13 12:50:06;;;;;;;1.50;1.40;;;32.50;40.30;;;;;;5059541;28;20036;-58
2022/08/13 12:52:32;;;;;;;1.40;1.30;;;32.20;41.00;;;;;;5060165;28;20071;-59
2022/08/13 12:54:57;;;;;;;4.97;1.40;;;32.20;40.80;;;;;;5062621;28;20020;-58
2022/08/13 12:57:23;;;;;;;2.17;1.30;;;32.50;41.90;;;;;;5059628;28;20047;-58
2022/08/13 12:59:49;;;;;;;3.33;1.60;;;32.80;41.60;;;;;;5052672;28;20025;-58
2022/08/13 13:02:16;;;;;;;1.45;1.35;;;33.30;39.70;;;;;;5057814;28;20068;-58
2022/08/13 13:04:43;;;;;;;1.55;1.40;;;33.60;39.30;;;;;;5061579;28;20033;-58
2022/08/13 13:07:09;;;;;;;1.50;1.40;;;33.60;39.70;;;;;;5065738;28;20502;-58
2022/08/13 13:09:35;;;;;;;5.10;1.58;;;33.10;39.20;;;;;;5063029;28;20090;-58
2022/08/13 13:12:01;;;;;;;2.95;1.50;;;32.90;39.90;;;;;;5055750;28;20492;-58
2022/08/13 13:14:27;;;;;;;2.72;1.60;;;32.30;40.50;;;;;;5055358;28;20047;-59
2022/08/13 13:16:52;;;;;;;1.30;1.20;;;32.20;41.90;;;;;;5061795;28;20037;-58
2022/08/13 13:19:19;;;;;;;3.38;1.45;;;32.00;42.30;;;;;;5061566;28;20025;-59
2022/08/13 13:21:46;;;;;;;3.40;1.98;;;31.90;42.60;;;;;;5062499;28;20112;-58